KBOK/BOK METAR and TAF weather

Enter ICAO airport designator
Station Type Date Time Source
KBOK METAR 2019/06/24 22:56 UTC NOAA

KBOK 242256Z AUTO 30010G16KT 10SM CLR 21/09 A2996 RMK AO2 SLP146 T02110089


Station Type Date Time Source
KBOK Decoded METAR 2019/06/24 22:56 UTC NOAA

Brookings, Brookings Airport, OR, United States (KBOK) 42-04-28N 124-17-24W
Jun 24, 2019 - 06:56 PM EDT / 2019.06.24 2256 UTC
Wind: from the WNW (300 degrees) at 12 MPH (10 KT) gusting to 18 MPH (16 KT):0
Visibility: 10 mile(s):0
Sky conditions: clear
Temperature: 70.0 F (21.1 C)
Dew Point: 48.0 F (8.9 C)
Relative Humidity: 45%
Pressure (altimeter): 29.96 in. Hg (1014 hPa)
ob: KBOK 242256Z AUTO 30010G16KT 10SM CLR 21/09 A2996 RMK AO2 SLP146 T02110089
cycle: 23

Station Type Date Time Source
KBOK TAF UTC NOAA

Error!

Example: see airport list